Terminal Aerodrome Forecast
Issued by NWS Jackson, KY

Home | Current Version | Previous Version | Text Only | Print | Product List | Glossary On
Versions: 1 2 3 4 5 6 7 8 9 10 11 12 13 14 15 16 17 18
000
FTUS43 KJKL 270800 AAA
TAFLOZ
TAF AMD
KLOZ 270846Z 2709/2806 VRB05KT P6SM VCSH OVC020
      TEMPO 2709/2711 4SM -SHSN BKN010
     FM271200 34006KT P6SM BKN025
     FM271800 34005KT P6SM BKN035
     FM272100 33006KT P6SM SCT040 SCT060=

USA.gov is the U.S. government's official web portal to all federal, state and local government web resources and services.